sensor_id;sensor_type;location;lat;lon;timestamp;P1;durP1;ratioP1;P2;durP2;ratioP2
36359;SDS011;22388;52.432;20.662;2023-09-30T00:02:25;16.48;;;8.75;;
36359;SDS011;22388;52.432;20.662;2023-09-30T00:04:50;15.57;;;7.70;;
36359;SDS011;22388;52.432;20.662;2023-09-30T00:07:16;19.38;;;8.40;;
36359;SDS011;22388;52.432;20.662;2023-09-30T00:09:41;14.57;;;8.23;;
36359;SDS011;22388;52.432;20.662;2023-09-30T00:12:07;14.02;;;8.15;;
36359;SDS011;22388;52.432;20.662;2023-09-30T00:14:33;14.02;;;8.15;;
36359;SDS011;22388;52.432;20.662;2023-09-30T00:16:59;16.13;;;7.80;;
36359;SDS011;22388;52.432;20.662;2023-09-30T00:19:25;19.65;;;7.90;;
36359;SDS011;22388;52.432;20.662;2023-09-30T00:21:51;21.17;;;8.95;;
36359;SDS011;22388;52.432;20.662;2023-09-30T00:24:16;17.83;;;8.30;;
36359;SDS011;22388;52.432;20.662;2023-09-30T00:26:42;18.90;;;8.18;;
36359;SDS011;22388;52.432;20.662;2023-09-30T00:29:08;16.65;;;8.52;;
36359;SDS011;22388;52.432;20.662;2023-09-30T00:31:33;30.85;;;10.20;;
36359;SDS011;22388;52.432;20.662;2023-09-30T00:33:59;21.85;;;9.20;;
36359;SDS011;22388;52.432;20.662;2023-09-30T00:36:24;21.95;;;10.07;;
36359;SDS011;22388;52.432;20.662;2023-09-30T00:38:50;15.88;;;8.32;;
36359;SDS011;22388;52.432;20.662;2023-09-30T00:41:17;19.95;;;9.52;;
36359;SDS011;22388;52.432;20.662;2023-09-30T00:43:45;17.98;;;9.60;;
36359;SDS011;22388;52.432;20.662;2023-09-30T00:46:18;14.88;;;10.02;;
36359;SDS011;22388;52.432;20.662;2023-09-30T00:49:01;20.30;;;9.15;;
36359;SDS011;22388;52.432;20.662;2023-09-30T00:51:28;17.48;;;9.88;;
36359;SDS011;22388;52.432;20.662;2023-09-30T00:53:54;18.88;;;8.55;;
36359;SDS011;22388;52.432;20.662;2023-09-30T00:56:22;20.52;;;9.50;;
36359;SDS011;22388;52.432;20.662;2023-09-30T00:58:48;22.85;;;8.77;;
36359;SDS011;22388;52.432;20.662;2023-09-30T01:01:17;18.27;;;9.30;;
36359;SDS011;22388;52.432;20.662;2023-09-30T01:03:44;17.27;;;9.75;;
36359;SDS011;22388;52.432;20.662;2023-09-30T01:06:11;21.30;;;10.35;;
36359;SDS011;22388;52.432;20.662;2023-09-30T01:08:36;22.08;;;9.05;;
36359;SDS011;22388;52.432;20.662;2023-09-30T01:11:02;16.50;;;9.10;;
36359;SDS011;22388;52.432;20.662;2023-09-30T01:13:34;14.38;;;9.00;;
36359;SDS011;22388;52.432;20.662;2023-09-30T01:16:06;18.08;;;9.65;;
36359;SDS011;22388;52.432;20.662;2023-09-30T01:18:37;19.40;;;8.88;;
36359;SDS011;22388;52.432;20.662;2023-09-30T01:21:04;16.95;;;9.90;;
36359;SDS011;22388;52.432;20.662;2023-09-30T01:23:30;14.63;;;9.73;;
36359;SDS011;22388;52.432;20.662;2023-09-30T01:25:56;18.02;;;9.93;;
36359;SDS011;22388;52.432;20.662;2023-09-30T01:28:23;21.83;;;10.23;;
36359;SDS011;22388;52.432;20.662;2023-09-30T01:30:48;19.52;;;9.73;;
36359;SDS011;22388;52.432;20.662;2023-09-30T01:33:14;16.30;;;9.32;;
36359;SDS011;22388;52.432;20.662;2023-09-30T01:35:44;27.52;;;9.82;;
36359;SDS011;22388;52.432;20.662;2023-09-30T01:38:10;15.43;;;9.32;;
36359;SDS011;22388;52.432;20.662;2023-09-30T01:40:35;13.32;;;9.20;;
36359;SDS011;22388;52.432;20.662;2023-09-30T01:43:02;19.63;;;10.32;;
36359;SDS011;22388;52.432;20.662;2023-09-30T01:45:28;18.25;;;10.55;;
36359;SDS011;22388;52.432;20.662;2023-09-30T01:47:54;15.45;;;9.23;;
36359;SDS011;22388;52.432;20.662;2023-09-30T01:50:20;18.13;;;9.65;;
36359;SDS011;22388;52.432;20.662;2023-09-30T01:52:45;18.65;;;9.85;;
36359;SDS011;22388;52.432;20.662;2023-09-30T01:55:11;20.17;;;9.73;;
36359;SDS011;22388;52.432;20.662;2023-09-30T01:57:37;20.65;;;10.65;;
36359;SDS011;22388;52.432;20.662;2023-09-30T02:00:03;15.57;;;9.98;;
36359;SDS011;22388;52.432;20.662;2023-09-30T02:02:30;19.10;;;10.43;;
36359;SDS011;22388;52.432;20.662;2023-09-30T02:04:56;18.95;;;9.48;;
36359;SDS011;22388;52.432;20.662;2023-09-30T02:07:22;20.77;;;10.50;;
36359;SDS011;22388;52.432;20.662;2023-09-30T02:09:48;24.38;;;10.88;;
36359;SDS011;22388;52.432;20.662;2023-09-30T02:12:14;22.50;;;10.45;;
36359;SDS011;22388;52.432;20.662;2023-09-30T02:14:40;20.65;;;10.75;;
36359;SDS011;22388;52.432;20.662;2023-09-30T02:17:06;16.23;;;9.95;;
36359;SDS011;22388;52.432;20.662;2023-09-30T02:19:31;20.63;;;10.52;;
36359;SDS011;22388;52.432;20.662;2023-09-30T02:21:59;21.27;;;10.35;;
36359;SDS011;22388;52.432;20.662;2023-09-30T02:24:25;18.67;;;10.73;;
36359;SDS011;22388;52.432;20.662;2023-09-30T02:26:50;17.10;;;9.75;;
36359;SDS011;22388;52.432;20.662;2023-09-30T02:29:16;22.52;;;11.00;;
36359;SDS011;22388;52.432;20.662;2023-09-30T02:31:41;17.70;;;10.68;;
36359;SDS011;22388;52.432;20.662;2023-09-30T02:34:07;19.92;;;10.70;;
36359;SDS011;22388;52.432;20.662;2023-09-30T02:36:33;22.10;;;11.13;;
36359;SDS011;22388;52.432;20.662;2023-09-30T02:39:04;23.48;;;11.07;;
36359;SDS011;22388;52.432;20.662;2023-09-30T02:41:30;24.95;;;11.05;;
36359;SDS011;22388;52.432;20.662;2023-09-30T02:43:56;19.60;;;11.52;;
36359;SDS011;22388;52.432;20.662;2023-09-30T02:46:22;18.08;;;11.38;;
36359;SDS011;22388;52.432;20.662;2023-09-30T02:48:47;21.48;;;12.00;;
36359;SDS011;22388;52.432;20.662;2023-09-30T02:51:13;21.15;;;11.60;;
36359;SDS011;22388;52.432;20.662;2023-09-30T02:53:38;17.77;;;10.85;;
36359;SDS011;22388;52.432;20.662;2023-09-30T02:56:04;22.60;;;11.38;;
36359;SDS011;22388;52.432;20.662;2023-09-30T02:58:30;18.25;;;11.05;;
36359;SDS011;22388;52.432;20.662;2023-09-30T03:00:56;25.85;;;12.00;;
36359;SDS011;22388;52.432;20.662;2023-09-30T03:03:21;17.73;;;11.07;;
36359;SDS011;22388;52.432;20.662;2023-09-30T03:05:47;21.42;;;12.02;;
36359;SDS011;22388;52.432;20.662;2023-09-30T03:08:15;20.52;;;11.48;;
36359;SDS011;22388;52.432;20.662;2023-09-30T03:10:41;22.65;;;11.95;;
36359;SDS011;22388;52.432;20.662;2023-09-30T03:13:07;19.75;;;10.55;;
36359;SDS011;22388;52.432;20.662;2023-09-30T03:15:34;19.08;;;11.30;;
36359;SDS011;22388;52.432;20.662;2023-09-30T03:18:00;17.55;;;11.43;;
36359;SDS011;22388;52.432;20.662;2023-09-30T03:20:26;19.58;;;11.77;;
36359;SDS011;22388;52.432;20.662;2023-09-30T03:22:52;21.63;;;12.57;;
36359;SDS011;22388;52.432;20.662;2023-09-30T03:25:18;17.88;;;11.90;;
36359;SDS011;22388;52.432;20.662;2023-09-30T03:27:45;21.33;;;11.63;;
36359;SDS011;22388;52.432;20.662;2023-09-30T03:30:12;20.42;;;11.27;;
36359;SDS011;22388;52.432;20.662;2023-09-30T03:32:38;17.85;;;11.68;;
36359;SDS011;22388;52.432;20.662;2023-09-30T03:35:10;18.00;;;11.13;;
36359;SDS011;22388;52.432;20.662;2023-09-30T03:37:40;21.25;;;10.98;;
36359;SDS011;22388;52.432;20.662;2023-09-30T03:40:06;18.85;;;11.75;;
36359;SDS011;22388;52.432;20.662;2023-09-30T03:42:42;16.15;;;11.45;;
36359;SDS011;22388;52.432;20.662;2023-09-30T03:45:08;18.52;;;11.63;;
36359;SDS011;22388;52.432;20.662;2023-09-30T03:47:35;19.90;;;12.20;;
36359;SDS011;22388;52.432;20.662;2023-09-30T03:50:05;20.85;;;11.38;;
36359;SDS011;22388;52.432;20.662;2023-09-30T03:52:35;25.08;;;11.60;;
36359;SDS011;22388;52.432;20.662;2023-09-30T03:55:01;19.25;;;11.57;;
36359;SDS011;22388;52.432;20.662;2023-09-30T03:57:33;19.60;;;11.38;;
36359;SDS011;22388;52.432;20.662;2023-09-30T04:00:01;22.85;;;11.88;;
36359;SDS011;22388;52.432;20.662;2023-09-30T04:02:31;19.40;;;11.07;;
36359;SDS011;22388;52.432;20.662;2023-09-30T04:04:57;20.58;;;11.38;;
36359;SDS011;22388;52.432;20.662;2023-09-30T04:07:24;21.08;;;11.90;;
36359;SDS011;22388;52.432;20.662;2023-09-30T04:09:54;22.92;;;11.82;;
36359;SDS011;22388;52.432;20.662;2023-09-30T04:12:20;20.27;;;11.73;;
36359;SDS011;22388;52.432;20.662;2023-09-30T04:14:47;17.88;;;11.38;;
36359;SDS011;22388;52.432;20.662;2023-09-30T04:17:13;20.13;;;12.07;;
36359;SDS011;22388;52.432;20.662;2023-09-30T04:19:39;19.90;;;12.13;;
36359;SDS011;22388;52.432;20.662;2023-09-30T04:22:04;22.60;;;11.98;;
36359;SDS011;22388;52.432;20.662;2023-09-30T04:24:30;24.00;;;12.57;;
36359;SDS011;22388;52.432;20.662;2023-09-30T04:26:56;15.48;;;11.60;;
36359;SDS011;22388;52.432;20.662;2023-09-30T04:29:27;20.75;;;11.77;;
36359;SDS011;22388;52.432;20.662;2023-09-30T04:31:54;20.17;;;12.70;;
36359;SDS011;22388;52.432;20.662;2023-09-30T04:34:23;22.27;;;12.68;;
36359;SDS011;22388;52.432;20.662;2023-09-30T04:36:48;20.13;;;12.65;;
36359;SDS011;22388;52.432;20.662;2023-09-30T04:39:14;19.63;;;11.93;;
36359;SDS011;22388;52.432;20.662;2023-09-30T04:41:41;22.58;;;14.15;;
36359;SDS011;22388;52.432;20.662;2023-09-30T04:44:07;20.88;;;12.75;;
36359;SDS011;22388;52.432;20.662;2023-09-30T04:46:37;21.55;;;13.07;;
36359;SDS011;22388;52.432;20.662;2023-09-30T04:49:11;18.98;;;12.27;;
36359;SDS011;22388;52.432;20.662;2023-09-30T04:51:39;20.83;;;12.40;;
36359;SDS011;22388;52.432;20.662;2023-09-30T04:54:05;21.08;;;12.60;;
36359;SDS011;22388;52.432;20.662;2023-09-30T04:56:33;19.80;;;12.82;;
36359;SDS011;22388;52.432;20.662;2023-09-30T04:59:00;18.65;;;12.43;;
36359;SDS011;22388;52.432;20.662;2023-09-30T05:01:27;18.85;;;12.05;;
36359;SDS011;22388;52.432;20.662;2023-09-30T05:03:53;19.52;;;12.75;;
36359;SDS011;22388;52.432;20.662;2023-09-30T05:06:19;19.50;;;12.07;;
36359;SDS011;22388;52.432;20.662;2023-09-30T05:08:46;21.27;;;12.63;;
36359;SDS011;22388;52.432;20.662;2023-09-30T05:11:13;25.35;;;12.63;;
36359;SDS011;22388;52.432;20.662;2023-09-30T05:13:38;22.38;;;12.20;;
36359;SDS011;22388;52.432;20.662;2023-09-30T05:16:04;17.98;;;11.98;;
36359;SDS011;22388;52.432;20.662;2023-09-30T05:18:30;20.92;;;11.75;;
36359;SDS011;22388;52.432;20.662;2023-09-30T05:20:56;19.08;;;11.75;;
36359;SDS011;22388;52.432;20.662;2023-09-30T05:23:21;18.40;;;11.80;;
36359;SDS011;22388;52.432;20.662;2023-09-30T05:25:47;18.88;;;12.10;;
36359;SDS011;22388;52.432;20.662;2023-09-30T05:28:12;19.25;;;11.63;;
36359;SDS011;22388;52.432;20.662;2023-09-30T05:30:39;19.98;;;11.80;;
36359;SDS011;22388;52.432;20.662;2023-09-30T05:33:06;18.48;;;11.57;;
36359;SDS011;22388;52.432;20.662;2023-09-30T05:35:32;19.38;;;12.00;;
36359;SDS011;22388;52.432;20.662;2023-09-30T05:37:58;22.05;;;12.32;;
36359;SDS011;22388;52.432;20.662;2023-09-30T05:40:24;17.60;;;12.38;;
36359;SDS011;22388;52.432;20.662;2023-09-30T05:42:56;21.67;;;12.85;;
36359;SDS011;22388;52.432;20.662;2023-09-30T05:45:26;19.63;;;12.73;;
36359;SDS011;22388;52.432;20.662;2023-09-30T05:47:53;21.42;;;12.73;;
36359;SDS011;22388;52.432;20.662;2023-09-30T05:50:20;22.98;;;12.50;;
36359;SDS011;22388;52.432;20.662;2023-09-30T05:52:55;18.67;;;11.95;;
36359;SDS011;22388;52.432;20.662;2023-09-30T05:55:21;20.55;;;12.65;;
36359;SDS011;22388;52.432;20.662;2023-09-30T05:57:50;21.13;;;13.02;;
36359;SDS011;22388;52.432;20.662;2023-09-30T06:00:17;20.38;;;13.38;;
36359;SDS011;22388;52.432;20.662;2023-09-30T06:02:48;19.08;;;12.20;;
36359;SDS011;22388;52.432;20.662;2023-09-30T06:05:14;17.85;;;12.73;;
36359;SDS011;22388;52.432;20.662;2023-09-30T06:07:44;21.17;;;12.95;;
36359;SDS011;22388;52.432;20.662;2023-09-30T06:10:13;18.83;;;12.13;;
36359;SDS011;22388;52.432;20.662;2023-09-30T06:12:44;20.83;;;12.90;;
36359;SDS011;22388;52.432;20.662;2023-09-30T06:15:13;20.90;;;13.57;;
36359;SDS011;22388;52.432;20.662;2023-09-30T06:17:49;20.42;;;13.40;;
36359;SDS011;22388;52.432;20.662;2023-09-30T06:20:17;19.52;;;13.95;;
36359;SDS011;22388;52.432;20.662;2023-09-30T06:22:45;18.48;;;13.10;;
36359;SDS011;22388;52.432;20.662;2023-09-30T06:25:14;17.48;;;13.38;;
36359;SDS011;22388;52.432;20.662;2023-09-30T06:27:46;19.30;;;12.93;;
36359;SDS011;22388;52.432;20.662;2023-09-30T06:30:13;23.73;;;13.27;;
36359;SDS011;22388;52.432;20.662;2023-09-30T06:32:41;20.70;;;14.35;;
36359;SDS011;22388;52.432;20.662;2023-09-30T06:35:07;21.05;;;13.60;;
36359;SDS011;22388;52.432;20.662;2023-09-30T06:37:36;21.60;;;13.00;;
36359;SDS011;22388;52.432;20.662;2023-09-30T06:40:03;19.38;;;13.73;;
36359;SDS011;22388;52.432;20.662;2023-09-30T06:42:33;20.98;;;13.27;;
36359;SDS011;22388;52.432;20.662;2023-09-30T06:45:00;17.08;;;13.85;;
36359;SDS011;22388;52.432;20.662;2023-09-30T06:47:31;18.88;;;13.60;;
36359;SDS011;22388;52.432;20.662;2023-09-30T06:50:00;20.90;;;12.32;;
36359;SDS011;22388;52.432;20.662;2023-09-30T06:52:32;20.52;;;13.13;;
36359;SDS011;22388;52.432;20.662;2023-09-30T06:55:03;19.75;;;13.20;;
36359;SDS011;22388;52.432;20.662;2023-09-30T06:57:30;18.75;;;12.70;;
36359;SDS011;22388;52.432;20.662;2023-09-30T06:59:57;20.83;;;13.77;;
36359;SDS011;22388;52.432;20.662;2023-09-30T07:02:22;19.33;;;14.10;;
36359;SDS011;22388;52.432;20.662;2023-09-30T07:04:49;17.05;;;12.93;;
36359;SDS011;22388;52.432;20.662;2023-09-30T07:07:14;26.40;;;14.15;;
36359;SDS011;22388;52.432;20.662;2023-09-30T07:09:40;18.52;;;13.75;;
36359;SDS011;22388;52.432;20.662;2023-09-30T07:12:07;18.58;;;14.43;;
36359;SDS011;22388;52.432;20.662;2023-09-30T07:14:32;15.77;;;13.20;;
36359;SDS011;22388;52.432;20.662;2023-09-30T07:16:58;22.35;;;13.98;;
36359;SDS011;22388;52.432;20.662;2023-09-30T07:19:23;18.75;;;13.88;;
36359;SDS011;22388;52.432;20.662;2023-09-30T07:21:49;18.63;;;14.13;;
36359;SDS011;22388;52.432;20.662;2023-09-30T07:24:15;18.00;;;14.05;;
36359;SDS011;22388;52.432;20.662;2023-09-30T07:26:40;23.17;;;15.10;;
36359;SDS011;22388;52.432;20.662;2023-09-30T07:29:06;24.42;;;15.40;;
36359;SDS011;22388;52.432;20.662;2023-09-30T07:31:37;19.27;;;14.60;;
36359;SDS011;22388;52.432;20.662;2023-09-30T07:34:03;19.08;;;14.77;;
36359;SDS011;22388;52.432;20.662;2023-09-30T07:36:28;20.27;;;15.07;;
36359;SDS011;22388;52.432;20.662;2023-09-30T07:38:54;20.08;;;15.55;;
36359;SDS011;22388;52.432;20.662;2023-09-30T07:41:19;22.17;;;15.75;;
36359;SDS011;22388;52.432;20.662;2023-09-30T07:43:45;24.77;;;16.17;;
36359;SDS011;22388;52.432;20.662;2023-09-30T07:46:11;23.30;;;16.60;;
36359;SDS011;22388;52.432;20.662;2023-09-30T07:48:36;26.67;;;17.17;;
36359;SDS011;22388;52.432;20.662;2023-09-30T07:51:02;35.38;;;17.40;;
36359;SDS011;22388;52.432;20.662;2023-09-30T07:53:28;22.45;;;15.95;;
36359;SDS011;22388;52.432;20.662;2023-09-30T07:55:55;23.15;;;16.08;;
36359;SDS011;22388;52.432;20.662;2023-09-30T07:58:21;27.00;;;17.08;;
36359;SDS011;22388;52.432;20.662;2023-09-30T08:00:47;19.75;;;15.20;;
36359;SDS011;22388;52.432;20.662;2023-09-30T08:03:13;20.98;;;15.68;;
36359;SDS011;22388;52.432;20.662;2023-09-30T08:05:38;21.67;;;16.10;;
36359;SDS011;22388;52.432;20.662;2023-09-30T08:08:04;22.25;;;15.10;;
36359;SDS011;22388;52.432;20.662;2023-09-30T08:10:31;25.13;;;17.00;;
36359;SDS011;22388;52.432;20.662;2023-09-30T08:12:57;23.00;;;16.83;;
36359;SDS011;22388;52.432;20.662;2023-09-30T08:15:24;23.90;;;17.20;;
36359;SDS011;22388;52.432;20.662;2023-09-30T08:17:50;27.38;;;17.15;;
36359;SDS011;22388;52.432;20.662;2023-09-30T08:20:15;22.90;;;17.80;;
36359;SDS011;22388;52.432;20.662;2023-09-30T08:22:41;22.92;;;16.92;;
36359;SDS011;22388;52.432;20.662;2023-09-30T08:25:07;23.48;;;17.33;;
36359;SDS011;22388;52.432;20.662;2023-09-30T08:27:33;22.70;;;17.42;;
36359;SDS011;22388;52.432;20.662;2023-09-30T08:29:59;24.98;;;17.42;;
36359;SDS011;22388;52.432;20.662;2023-09-30T08:32:26;23.83;;;16.90;;
36359;SDS011;22388;52.432;20.662;2023-09-30T08:34:51;20.92;;;17.10;;
36359;SDS011;22388;52.432;20.662;2023-09-30T08:37:17;22.40;;;16.92;;
36359;SDS011;22388;52.432;20.662;2023-09-30T08:39:43;26.50;;;17.10;;
36359;SDS011;22388;52.432;20.662;2023-09-30T08:42:11;27.17;;;18.25;;
36359;SDS011;22388;52.432;20.662;2023-09-30T08:44:39;26.90;;;18.75;;
36359;SDS011;22388;52.432;20.662;2023-09-30T08:47:06;22.20;;;17.80;;
36359;SDS011;22388;52.432;20.662;2023-09-30T08:49:35;24.83;;;18.38;;
36359;SDS011;22388;52.432;20.662;2023-09-30T08:52:04;24.30;;;18.13;;
36359;SDS011;22388;52.432;20.662;2023-09-30T08:54:31;23.88;;;18.75;;
36359;SDS011;22388;52.432;20.662;2023-09-30T08:56:57;25.15;;;18.13;;
36359;SDS011;22388;52.432;20.662;2023-09-30T08:59:23;27.42;;;18.05;;
36359;SDS011;22388;52.432;20.662;2023-09-30T09:01:50;30.95;;;19.65;;
36359;SDS011;22388;52.432;20.662;2023-09-30T09:04:17;29.40;;;18.55;;
36359;SDS011;22388;52.432;20.662;2023-09-30T09:06:43;25.52;;;18.38;;
36359;SDS011;22388;52.432;20.662;2023-09-30T09:09:15;25.52;;;17.58;;
36359;SDS011;22388;52.432;20.662;2023-09-30T09:11:42;25.65;;;18.02;;
36359;SDS011;22388;52.432;20.662;2023-09-30T09:14:09;24.50;;;16.65;;
36359;SDS011;22388;52.432;20.662;2023-09-30T09:16:35;27.13;;;16.25;;
36359;SDS011;22388;52.432;20.662;2023-09-30T09:19:14;27.70;;;16.48;;
36359;SDS011;22388;52.432;20.662;2023-09-30T09:21:55;22.20;;;15.73;;
36359;SDS011;22388;52.432;20.662;2023-09-30T09:24:36;19.52;;;13.93;;
36359;SDS011;22388;52.432;20.662;2023-09-30T09:27:08;20.60;;;13.27;;
36359;SDS011;22388;52.432;20.662;2023-09-30T09:29:37;20.23;;;13.27;;
36359;SDS011;22388;52.432;20.662;2023-09-30T09:32:11;19.48;;;12.80;;
36359;SDS011;22388;52.432;20.662;2023-09-30T09:34:41;17.92;;;8.18;;
36359;SDS011;22388;52.432;20.662;2023-09-30T09:39:50;12.95;;;4.72;;
36359;SDS011;22388;52.432;20.662;2023-09-30T09:42:30;11.65;;;3.80;;
36359;SDS011;22388;52.432;20.662;2023-09-30T09:44:59;8.63;;;3.60;;
36359;SDS011;22388;52.432;20.662;2023-09-30T09:47:27;9.30;;;3.80;;
36359;SDS011;22388;52.432;20.662;2023-09-30T09:49:54;10.85;;;3.28;;
36359;SDS011;22388;52.432;20.662;2023-09-30T09:52:22;7.38;;;3.20;;
36359;SDS011;22388;52.432;20.662;2023-09-30T09:54:49;8.25;;;3.10;;
36359;SDS011;22388;52.432;20.662;2023-09-30T09:57:16;8.38;;;3.53;;
36359;SDS011;22388;52.432;20.662;2023-09-30T09:59:45;6.63;;;3.13;;
36359;SDS011;22388;52.432;20.662;2023-09-30T10:02:15;5.82;;;3.03;;
36359;SDS011;22388;52.432;20.662;2023-09-30T10:04:42;8.05;;;2.90;;
36359;SDS011;22388;52.432;20.662;2023-09-30T10:07:16;7.50;;;2.40;;
36359;SDS011;22388;52.432;20.662;2023-09-30T10:09:52;8.68;;;2.45;;
36359;SDS011;22388;52.432;20.662;2023-09-30T10:12:19;8.15;;;1.77;;
36359;SDS011;22388;52.432;20.662;2023-09-30T10:14:48;8.68;;;2.95;;
36359;SDS011;22388;52.432;20.662;2023-09-30T10:17:14;9.05;;;3.40;;
36359;SDS011;22388;52.432;20.662;2023-09-30T10:22:43;8.40;;;2.88;;
36359;SDS011;22388;52.432;20.662;2023-09-30T10:27:59;7.85;;;3.03;;
36359;SDS011;22388;52.432;20.662;2023-09-30T10:30:25;7.60;;;2.78;;
36359;SDS011;22388;52.432;20.662;2023-09-30T10:35:21;11.05;;;3.25;;
36359;SDS011;22388;52.432;20.662;2023-09-30T10:37:52;10.90;;;3.00;;
36359;SDS011;22388;52.432;20.662;2023-09-30T10:40:48;11.20;;;2.97;;
36359;SDS011;22388;52.432;20.662;2023-09-30T10:43:31;11.90;;;3.72;;
36359;SDS011;22388;52.432;20.662;2023-09-30T10:46:04;10.77;;;3.55;;
36359;SDS011;22388;52.432;20.662;2023-09-30T10:48:49;10.57;;;3.53;;
36359;SDS011;22388;52.432;20.662;2023-09-30T10:51:18;12.25;;;3.17;;
36359;SDS011;22388;52.432;20.662;2023-09-30T10:53:49;12.88;;;3.60;;
36359;SDS011;22388;52.432;20.662;2023-09-30T10:56:22;11.15;;;3.40;;
36359;SDS011;22388;52.432;20.662;2023-09-30T10:58:50;12.57;;;3.15;;
36359;SDS011;22388;52.432;20.662;2023-09-30T11:01:20;10.38;;;2.97;;
36359;SDS011;22388;52.432;20.662;2023-09-30T11:03:48;13.65;;;2.92;;
36359;SDS011;22388;52.432;20.662;2023-09-30T11:06:17;15.10;;;3.00;;
36359;SDS011;22388;52.432;20.662;2023-09-30T11:08:49;11.95;;;3.22;;
36359;SDS011;22388;52.432;20.662;2023-09-30T11:13:43;15.55;;;2.88;;
36359;SDS011;22388;52.432;20.662;2023-09-30T11:16:09;9.15;;;2.85;;
36359;SDS011;22388;52.432;20.662;2023-09-30T11:18:36;14.23;;;4.13;;
36359;SDS011;22388;52.432;20.662;2023-09-30T11:21:09;11.27;;;2.85;;
36359;SDS011;22388;52.432;20.662;2023-09-30T11:23:36;13.70;;;3.08;;
36359;SDS011;22388;52.432;20.662;2023-09-30T11:26:03;12.98;;;3.40;;
36359;SDS011;22388;52.432;20.662;2023-09-30T11:28:36;13.52;;;2.97;;
36359;SDS011;22388;52.432;20.662;2023-09-30T11:31:07;14.98;;;4.10;;
36359;SDS011;22388;52.432;20.662;2023-09-30T11:33:56;12.55;;;3.30;;
36359;SDS011;22388;52.432;20.662;2023-09-30T11:36:23;10.65;;;3.33;;
36359;SDS011;22388;52.432;20.662;2023-09-30T11:38:50;16.10;;;3.80;;
36359;SDS011;22388;52.432;20.662;2023-09-30T11:41:18;10.75;;;3.33;;
36359;SDS011;22388;52.432;20.662;2023-09-30T11:44:03;14.27;;;3.72;;
36359;SDS011;22388;52.432;20.662;2023-09-30T11:46:33;11.80;;;3.85;;
36359;SDS011;22388;52.432;20.662;2023-09-30T11:49:39;11.50;;;3.50;;
36359;SDS011;22388;52.432;20.662;2023-09-30T11:52:11;11.95;;;3.38;;
36359;SDS011;22388;52.432;20.662;2023-09-30T11:54:42;14.60;;;3.67;;
36359;SDS011;22388;52.432;20.662;2023-09-30T11:57:10;13.85;;;4.30;;
36359;SDS011;22388;52.432;20.662;2023-09-30T11:59:43;14.50;;;3.72;;
36359;SDS011;22388;52.432;20.662;2023-09-30T12:02:11;15.52;;;3.67;;
36359;SDS011;22388;52.432;20.662;2023-09-30T12:04:38;11.25;;;3.40;;
36359;SDS011;22388;52.432;20.662;2023-09-30T12:07:04;13.05;;;3.28;;
36359;SDS011;22388;52.432;20.662;2023-09-30T12:09:32;14.20;;;3.33;;
36359;SDS011;22388;52.432;20.662;2023-09-30T12:11:57;13.23;;;3.28;;
36359;SDS011;22388;52.432;20.662;2023-09-30T12:14:23;16.73;;;4.03;;
36359;SDS011;22388;52.432;20.662;2023-09-30T12:16:49;14.68;;;3.65;;
36359;SDS011;22388;52.432;20.662;2023-09-30T12:19:19;16.52;;;3.40;;
36359;SDS011;22388;52.432;20.662;2023-09-30T12:21:45;9.50;;;3.20;;
36359;SDS011;22388;52.432;20.662;2023-09-30T12:24:16;11.15;;;3.30;;
36359;SDS011;22388;52.432;20.662;2023-09-30T12:26:44;15.15;;;3.65;;
36359;SDS011;22388;52.432;20.662;2023-09-30T12:29:20;13.13;;;3.42;;
36359;SDS011;22388;52.432;20.662;2023-09-30T12:31:47;10.45;;;3.25;;
36359;SDS011;22388;52.432;20.662;2023-09-30T12:34:14;10.93;;;3.60;;
36359;SDS011;22388;52.432;20.662;2023-09-30T12:36:40;8.65;;;2.75;;
36359;SDS011;22388;52.432;20.662;2023-09-30T12:39:06;11.77;;;3.17;;
36359;SDS011;22388;52.432;20.662;2023-09-30T12:41:39;11.38;;;3.58;;
36359;SDS011;22388;52.432;20.662;2023-09-30T12:44:08;10.65;;;3.20;;
36359;SDS011;22388;52.432;20.662;2023-09-30T12:46:35;14.27;;;3.15;;
36359;SDS011;22388;52.432;20.662;2023-09-30T12:49:02;11.15;;;3.25;;
36359;SDS011;22388;52.432;20.662;2023-09-30T12:51:28;10.30;;;3.00;;
36359;SDS011;22388;52.432;20.662;2023-09-30T12:53:54;11.80;;;2.60;;
36359;SDS011;22388;52.432;20.662;2023-09-30T12:56:20;7.72;;;2.55;;
36359;SDS011;22388;52.432;20.662;2023-09-30T12:58:47;9.32;;;2.80;;
36359;SDS011;22388;52.432;20.662;2023-09-30T13:01:14;16.45;;;3.25;;
36359;SDS011;22388;52.432;20.662;2023-09-30T13:03:46;13.40;;;2.90;;
36359;SDS011;22388;52.432;20.662;2023-09-30T13:06:12;14.13;;;2.80;;
36359;SDS011;22388;52.432;20.662;2023-09-30T13:08:38;10.63;;;3.47;;
36359;SDS011;22388;52.432;20.662;2023-09-30T13:11:04;12.95;;;3.72;;
36359;SDS011;22388;52.432;20.662;2023-09-30T13:13:29;13.10;;;3.40;;
36359;SDS011;22388;52.432;20.662;2023-09-30T13:16:01;15.50;;;3.20;;
36359;SDS011;22388;52.432;20.662;2023-09-30T13:18:30;11.88;;;2.65;;
36359;SDS011;22388;52.432;20.662;2023-09-30T13:20:56;11.73;;;2.70;;
36359;SDS011;22388;52.432;20.662;2023-09-30T13:23:22;11.82;;;3.17;;
36359;SDS011;22388;52.432;20.662;2023-09-30T13:25:48;11.85;;;3.20;;
36359;SDS011;22388;52.432;20.662;2023-09-30T13:28:13;14.35;;;3.13;;
36359;SDS011;22388;52.432;20.662;2023-09-30T13:30:39;10.25;;;2.85;;
36359;SDS011;22388;52.432;20.662;2023-09-30T13:33:04;11.93;;;3.00;;
36359;SDS011;22388;52.432;20.662;2023-09-30T13:35:30;12.50;;;2.80;;
36359;SDS011;22388;52.432;20.662;2023-09-30T13:37:57;13.32;;;3.03;;
36359;SDS011;22388;52.432;20.662;2023-09-30T13:40:23;12.73;;;2.80;;
36359;SDS011;22388;52.432;20.662;2023-09-30T13:42:49;10.57;;;2.80;;
36359;SDS011;22388;52.432;20.662;2023-09-30T13:45:14;12.20;;;3.05;;
36359;SDS011;22388;52.432;20.662;2023-09-30T13:47:42;8.82;;;2.85;;
36359;SDS011;22388;52.432;20.662;2023-09-30T13:50:08;12.85;;;3.22;;
36359;SDS011;22388;52.432;20.662;2023-09-30T13:52:34;16.17;;;3.08;;
36359;SDS011;22388;52.432;20.662;2023-09-30T13:55:00;9.15;;;2.80;;
36359;SDS011;22388;52.432;20.662;2023-09-30T13:57:26;19.48;;;3.42;;
36359;SDS011;22388;52.432;20.662;2023-09-30T13:59:51;10.85;;;2.97;;
36359;SDS011;22388;52.432;20.662;2023-09-30T14:02:17;12.15;;;3.33;;
36359;SDS011;22388;52.432;20.662;2023-09-30T14:04:43;11.88;;;2.80;;
36359;SDS011;22388;52.432;20.662;2023-09-30T14:07:09;11.07;;;2.67;;
36359;SDS011;22388;52.432;20.662;2023-09-30T14:09:34;13.43;;;3.05;;
36359;SDS011;22388;52.432;20.662;2023-09-30T14:12:15;14.55;;;2.95;;
36359;SDS011;22388;52.432;20.662;2023-09-30T14:14:56;8.90;;;3.10;;
36359;SDS011;22388;52.432;20.662;2023-09-30T14:17:22;8.95;;;2.90;;
36359;SDS011;22388;52.432;20.662;2023-09-30T14:19:47;8.40;;;2.55;;
36359;SDS011;22388;52.432;20.662;2023-09-30T14:22:13;12.63;;;2.97;;
36359;SDS011;22388;52.432;20.662;2023-09-30T14:24:38;10.85;;;2.95;;
36359;SDS011;22388;52.432;20.662;2023-09-30T14:27:04;9.77;;;2.72;;
36359;SDS011;22388;52.432;20.662;2023-09-30T14:29:30;13.57;;;3.05;;
36359;SDS011;22388;52.432;20.662;2023-09-30T14:31:57;12.32;;;3.55;;
36359;SDS011;22388;52.432;20.662;2023-09-30T14:34:23;12.93;;;3.00;;